Time;durP1;ratioP1;P1;durP2;ratioP2;P2;SDS_P1;SDS_P2;PMS_P1;PMS_P2;Temp;Humidity;BMP_temperature;BMP_pressure;BME280_temperature;BME280_humidity;BME280_pressure;Samples;Min_cycle;Max_cycle;Signal;HPM_P1;HPM_P2
2023/06/07 00:00:56;;;;;;;10.73;6.90;;;;;;;15.32;76.82;101826.34;5120806;29;20464;-71
2023/06/07 00:03:27;;;;;;;14.57;7.57;;;;;;;15.28;76.28;101822.03;5121636;29;20139;-70
2023/06/07 00:06:01;;;;;;;11.40;7.43;;;;;;;15.27;76.71;101820.28;5121719;29;20029;-71
2023/06/07 00:08:33;;;;;;;12.32;7.00;;;;;;;15.29;76.94;101823.78;5122454;29;20039;-70
2023/06/07 00:11:04;;;;;;;14.53;8.00;;;;;;;15.12;77.41;101826.66;5120198;29;20032;-70
2023/06/07 00:13:36;;;;;;;14.17;7.73;;;;;;;15.07;77.99;101824.97;5121691;29;20403;-70
2023/06/07 00:16:08;;;;;;;11.13;6.97;;;;;;;15.23;77.43;101826.50;5120415;29;20468;-70
2023/06/07 00:18:40;;;;;;;10.20;6.73;;;;;;;15.12;77.72;101823.19;5120419;29;20132;-70
2023/06/07 00:21:12;;;;;;;18.05;9.18;;;;;;;15.13;78.58;101817.91;5121578;29;20441;-70
2023/06/07 00:23:43;;;;;;;16.83;6.80;;;;;;;15.27;78.06;101822.91;5121529;29;20068;-70
2023/06/07 00:26:14;;;;;;;15.50;6.73;;;;;;;15.07;78.06;101831.13;5121422;29;20083;-70
2023/06/07 00:28:46;;;;;;;10.60;7.33;;;;;;;15.04;78.21;101817.19;5121401;29;20472;-68
2023/06/07 00:31:17;;;;;;;12.83;7.93;;;;;;;14.92;78.29;101826.06;5121270;29;20074;-70
2023/06/07 00:33:49;;;;;;;11.50;7.03;;;;;;;14.97;78.52;101826.88;5120344;29;20028;-69
2023/06/07 00:36:20;;;;;;;11.67;6.87;;;;;;;15.09;77.95;101829.34;5122053;29;20058;-70
2023/06/07 00:38:51;;;;;;;12.27;7.37;;;;;;;15.09;77.87;101825.84;5121685;29;20036;-70
2023/06/07 00:41:23;;;;;;;13.83;7.67;;;;;;;15.13;77.81;101823.16;5121000;29;20110;-70
2023/06/07 00:43:54;;;;;;;15.97;7.10;;;;;;;15.03;77.24;101818.91;5121194;29;20448;-70
2023/06/07 00:46:28;;;;;;;11.80;7.27;;;;;;;15.14;77.57;101818.75;5121213;29;20036;-70
2023/06/07 00:49:00;;;;;;;15.48;7.43;;;;;;;14.92;77.24;101826.97;5120999;29;20028;-69
2023/06/07 00:51:32;;;;;;;17.42;8.23;;;;;;;15.07;77.45;101819.72;5120861;29;20067;-70
2023/06/07 00:54:07;;;;;;;14.07;8.17;;;;;;;15.08;76.93;101811.81;5121093;29;20084;-69
2023/06/07 00:56:38;;;;;;;13.48;7.40;;;;;;;15.17;76.89;101815.22;5121551;29;20047;-70
2023/06/07 00:59:10;;;;;;;16.17;7.37;;;;;;;14.95;77.34;101819.03;5120828;29;20044;-69
2023/06/07 01:01:44;;;;;;;12.63;7.50;;;;;;;14.84;77.65;101812.19;5121017;29;20063;-70
2023/06/07 01:04:18;;;;;;;11.45;7.07;;;;;;;14.89;77.59;101813.00;5121035;29;20483;-70
2023/06/07 01:06:52;;;;;;;14.80;7.68;;;;;;;14.66;79.09;101811.56;5120794;29;20488;-70
2023/06/07 01:09:24;;;;;;;12.80;7.57;;;;;;;14.58;79.02;101816.00;5120758;29;20523;-71
2023/06/07 01:11:57;;;;;;;17.25;6.97;;;;;;;14.70;78.63;101823.75;5103705;29;20044;-70
2023/06/07 01:14:30;;;;;;;12.20;8.18;;;;;;;14.69;78.85;101819.38;5119388;29;20039;-71
2023/06/07 01:17:04;;;;;;;13.45;7.85;;;;;;;14.52;79.49;101827.47;5120695;29;20036;-70
2023/06/07 01:19:36;;;;;;;11.82;7.90;;;;;;;14.59;80.04;101820.38;5120712;29;20048;-70
2023/06/07 01:22:10;;;;;;;13.32;8.25;;;;;;;14.51;79.79;101814.38;5120444;29;20044;-70
2023/06/07 01:24:42;;;;;;;15.35;8.57;;;;;;;14.41;79.73;101809.22;5120736;29;20063;-70
2023/06/07 01:27:15;;;;;;;14.75;8.23;;;;;;;14.43;79.86;101811.84;5121041;29;20429;-71
2023/06/07 01:29:46;;;;;;;11.65;7.57;;;;;;;14.35;79.73;101804.06;5120595;29;20057;-70
2023/06/07 01:32:18;;;;;;;15.03;7.77;;;;;;;14.43;79.80;101798.72;5120804;29;20064;-71
2023/06/07 01:34:51;;;;;;;11.73;8.07;;;;;;;14.35;80.19;101806.69;5120467;29;20190;-71
2023/06/07 01:37:25;;;;;;;14.98;7.07;;;;;;;14.47;79.92;101802.16;5120455;29;20107;-70
2023/06/07 01:39:57;;;;;;;15.00;8.02;;;;;;;14.61;79.83;101800.25;5120234;29;20119;-70
2023/06/07 01:42:29;;;;;;;13.95;7.25;;;;;;;14.34;79.78;101806.69;5120626;29;20127;-70
2023/06/07 01:45:03;;;;;;;14.80;7.53;;;;;;;14.23;79.84;101807.69;5120397;29;20083;-71
2023/06/07 01:47:34;;;;;;;14.32;7.57;;;;;;;14.22;80.19;101799.84;5122528;29;20114;-71
2023/06/07 01:50:08;;;;;;;15.73;7.93;;;;;;;14.19;80.94;101805.13;5124234;29;20038;-70
2023/06/07 01:52:39;;;;;;;12.63;8.55;;;;;;;14.09;80.50;101800.84;5124290;29;20032;-70
2023/06/07 01:55:10;;;;;;;13.27;7.97;;;;;;;14.22;80.83;101800.72;5123926;29;20036;-70
2023/06/07 01:57:57;;;;;;;10.67;7.60;;;;;;;14.03;81.17;101797.41;5123578;29;20368;-69
2023/06/07 02:00:38;;;;;;;17.02;8.00;;;;;;;13.92;81.61;101796.66;5124316;29;20028;-71
2023/06/07 02:03:39;;;;;;;13.13;8.30;;;;;;;14.06;81.34;101795.66;5124275;29;20052;-71
2023/06/07 02:06:16;;;;;;;13.63;8.38;;;;;;;13.79;81.94;101793.31;5107974;29;20056;-71
2023/06/07 02:08:53;;;;;;;15.98;7.82;;;;;;;13.77;82.91;101792.47;5124682;29;20418;-71
2023/06/07 02:11:26;;;;;;;14.48;7.47;;;;;;;13.73;82.57;101797.75;5124473;29;20028;-70
2023/06/07 02:13:58;;;;;;;14.20;7.38;;;;;;;13.81;82.57;101798.53;5123691;29;20036;-70
2023/06/07 02:16:37;;;;;;;16.83;8.13;;;;;;;13.69;82.87;101791.66;5123707;29;20488;-70
2023/06/07 02:19:09;;;;;;;13.32;8.48;;;;;;;13.69;82.98;101802.16;5123486;29;20087;-70
2023/06/07 02:21:41;;;;;;;12.75;8.15;;;;;;;13.65;82.53;101792.56;5124633;29;20040;-70
2023/06/07 02:24:12;;;;;;;13.80;8.00;;;;;;;13.61;83.41;101803.97;5123828;29;20115;-70
2023/06/07 02:26:43;;;;;;;12.97;8.03;;;;;;;13.53;83.27;101804.03;5123693;29;20388;-70
2023/06/07 02:29:15;;;;;;;12.70;8.40;;;;;;;13.54;83.62;101791.78;5124145;29;20456;-70
2023/06/07 02:31:50;;;;;;;16.23;8.27;;;;;;;13.56;83.45;101809.25;5123946;29;20024;-70
2023/06/07 02:34:21;;;;;;;11.40;7.25;;;;;;;13.53;84.20;101805.81;5122348;29;20032;-70
2023/06/07 02:36:53;;;;;;;17.60;8.53;;;;;;;13.41;84.18;101805.03;5123567;29;20084;-71
2023/06/07 02:39:24;;;;;;;13.48;8.88;;;;;;;13.40;84.08;101800.66;5123914;29;20039;-71
2023/06/07 02:41:56;;;;;;;13.17;7.83;;;;;;;13.38;84.12;101805.03;5124037;29;20032;-71
2023/06/07 02:44:28;;;;;;;17.50;9.33;;;;;;;13.52;84.18;101804.06;5123116;29;20120;-71
2023/06/07 02:46:59;;;;;;;13.98;8.45;;;;;;;13.42;84.59;101805.88;5123406;29;20057;-71
2023/06/07 02:49:31;;;;;;;13.73;8.53;;;;;;;13.39;84.39;101805.91;5123446;29;20048;-71
2023/06/07 02:52:02;;;;;;;16.07;9.43;;;;;;;13.30;84.45;101797.22;5123106;29;20160;-70
2023/06/07 02:54:34;;;;;;;12.53;8.43;;;;;;;13.35;85.25;101794.59;5123176;29;20059;-70
2023/06/07 02:57:07;;;;;;;12.43;8.43;;;;;;;13.26;85.38;101802.47;5121810;29;20111;-71
2023/06/07 02:59:40;;;;;;;13.20;8.35;;;;;;;13.30;85.10;101806.81;5123163;29;20025;-70
2023/06/07 03:02:11;;;;;;;15.68;9.55;;;;;;;13.23;85.46;101798.13;5123521;29;20040;-70
2023/06/07 03:04:43;;;;;;;14.53;8.87;;;;;;;13.30;84.96;101806.81;5106041;29;20445;-70
2023/06/07 03:07:15;;;;;;;18.48;8.77;;;;;;;13.46;84.81;101808.47;5123232;29;20036;-70
2023/06/07 03:09:47;;;;;;;18.40;10.02;;;;;;;13.27;85.26;101806.84;5123056;29;20095;-71
2023/06/07 03:12:19;;;;;;;13.40;8.55;;;;;;;13.34;84.65;101805.06;5123404;29;20074;-71
2023/06/07 03:14:50;;;;;;;21.53;8.90;;;;;;;13.27;85.09;101806.84;5123055;29;20067;-70
2023/06/07 03:17:22;;;;;;;18.93;10.13;;;;;;;13.18;85.54;101805.16;5122529;29;20033;-70
2023/06/07 03:19:53;;;;;;;15.68;9.10;;;;;;;13.26;85.43;101807.72;5123031;29;20040;-70
2023/06/07 03:22:25;;;;;;;17.50;9.50;;;;;;;13.29;85.27;101815.56;5123002;29;20127;-70
2023/06/07 03:24:57;;;;;;;12.32;8.65;;;;;;;13.25;84.99;101811.19;5122942;29;20024;-70
2023/06/07 03:27:32;;;;;;;16.67;9.23;;;;;;;13.14;85.38;101812.16;5122037;29;20043;-70
2023/06/07 03:30:04;;;;;;;15.52;8.55;;;;;;;13.09;85.70;101811.34;5121056;29;20476;-71
2023/06/07 03:32:35;;;;;;;13.63;8.25;;;;;;;13.29;84.78;101808.56;5122142;29;20048;-70
2023/06/07 03:35:07;;;;;;;20.73;10.83;;;;;;;13.13;85.50;101815.66;5122133;29;20504;-70
2023/06/07 03:37:38;;;;;;;14.97;8.53;;;;;;;13.32;85.09;101819.03;5122329;29;20040;-71
2023/06/07 03:40:10;;;;;;;13.87;8.07;;;;;;;13.02;85.88;101806.13;5122352;29;20044;-70
2023/06/07 03:42:42;;;;;;;17.05;9.50;;;;;;;13.00;86.05;101810.53;5122294;29;20064;-70
2023/06/07 03:45:13;;;;;;;12.10;8.27;;;;;;;12.94;86.14;101808.81;5121722;29;20032;-70
2023/06/07 03:47:45;;;;;;;13.90;8.93;;;;;;;12.88;86.35;101801.88;5122247;29;20040;-70
2023/06/07 03:50:16;;;;;;;15.50;8.60;;;;;;;12.98;86.86;101818.38;5121749;29;20103;-70
2023/06/07 03:52:47;;;;;;;17.93;10.27;;;;;;;12.91;86.40;101816.66;5121180;29;20071;-70
2023/06/07 03:55:19;;;;;;;14.73;8.70;;;;;;;12.95;86.50;101805.31;5121745;29;20034;-70
2023/06/07 03:57:51;;;;;;;16.20;9.50;;;;;;;12.89;86.83;101815.81;5122076;29;20040;-70
2023/06/07 04:00:26;;;;;;;13.27;9.30;;;;;;;12.93;86.50;101820.16;5120158;29;20040;-70
2023/06/07 04:02:58;;;;;;;20.35;8.73;;;;;;;12.93;86.77;101812.31;5121787;29;20040;-71
2023/06/07 04:05:29;;;;;;;16.43;9.07;;;;;;;12.87;87.06;101817.56;5121878;29;20036;-71
2023/06/07 04:08:01;;;;;;;20.00;9.33;;;;;;;12.94;86.27;101819.28;5121345;29;20111;-71
2023/06/07 04:10:32;;;;;;;16.17;8.90;;;;;;;12.90;86.16;101823.66;5104251;29;20126;-71
2023/06/07 04:13:03;;;;;;;16.60;9.50;;;;;;;12.83;86.40;101818.47;5120200;29;20036;-71
2023/06/07 04:15:35;;;;;;;13.23;8.70;;;;;;;12.94;86.33;101820.16;5121445;29;20070;-71
2023/06/07 04:18:06;;;;;;;16.00;8.37;;;;;;;13.03;86.18;101823.59;5121331;29;20032;-71
2023/06/07 04:20:40;;;;;;;14.57;8.87;;;;;;;12.90;86.59;101817.56;5121109;29;20051;-70
2023/06/07 04:23:11;;;;;;;13.95;8.65;;;;;;;13.01;86.53;101817.47;5121124;29;20459;-70
2023/06/07 04:25:43;;;;;;;13.70;8.70;;;;;;;12.85;87.06;101814.13;5119966;29;20029;-70
2023/06/07 04:28:15;;;;;;;15.68;9.23;;;;;;;12.93;86.48;101822.78;5121023;29;20036;-70
2023/06/07 04:30:47;;;;;;;21.20;9.60;;;;;;;12.84;87.23;101814.97;5120955;29;20479;-70
2023/06/07 04:33:19;;;;;;;16.58;8.88;;;;;;;12.71;87.51;101809.81;5120919;29;20532;-70
2023/06/07 04:35:51;;;;;;;13.18;8.95;;;;;;;12.74;87.27;101820.25;5120958;29;20465;-70
2023/06/07 04:38:23;;;;;;;15.13;8.50;;;;;;;12.75;87.29;101816.78;5120920;29;20103;-70
2023/06/07 04:40:55;;;;;;;20.02;9.75;;;;;;;12.78;87.59;101821.09;5119983;29;20032;-70
2023/06/07 04:43:26;;;;;;;20.60;10.87;;;;;;;12.84;87.66;101810.59;5119654;29;20024;-70
2023/06/07 04:46:01;;;;;;;20.37;9.43;;;;;;;12.75;87.11;101808.94;5120858;29;20036;-70
2023/06/07 04:48:32;;;;;;;18.27;8.32;;;;;;;12.98;86.64;101814.91;5120910;29;20032;-68
2023/06/07 04:51:04;;;;;;;12.77;9.27;;;;;;;12.96;86.49;101835.84;5120806;29;20043;-69
2023/06/07 04:53:39;;;;;;;14.77;9.40;;;;;;;12.95;86.62;101824.50;5120970;29;20036;-70
2023/06/07 04:56:11;;;;;;;14.55;8.60;;;;;;;12.88;86.56;101821.91;5121232;29;20036;-69
2023/06/07 04:58:42;;;;;;;20.23;8.95;;;;;;;12.79;87.03;101822.00;5120861;29;20036;-69
2023/06/07 05:01:15;;;;;;;12.53;8.03;;;;;;;12.92;86.56;101819.28;5120389;29;20054;-69
2023/06/07 05:03:49;;;;;;;18.10;8.95;;;;;;;12.83;86.72;101829.81;5119622;29;20407;-69
2023/06/07 05:06:20;;;;;;;13.98;8.25;;;;;;;12.98;86.74;101818.38;5119247;29;20042;-69
2023/06/07 05:08:51;;;;;;;16.60;8.80;;;;;;;13.17;86.13;101826.09;5120585;29;20036;-69
2023/06/07 05:11:23;;;;;;;20.27;8.50;;;;;;;13.06;85.75;101829.66;5119568;29;20127;-69
2023/06/07 05:13:54;;;;;;;13.37;8.10;;;;;;;13.11;86.38;101837.50;5120343;29;20028;-70
2023/06/07 05:16:26;;;;;;;16.30;8.10;;;;;;;13.16;85.25;101830.47;5119489;29;20349;-69
2023/06/07 05:18:58;;;;;;;14.23;8.63;;;;;;;13.34;85.64;101828.66;5120740;29;20038;-69
2023/06/07 05:21:29;;;;;;;14.63;7.72;;;;;;;13.31;84.51;101829.50;5123268;29;20043;-69
2023/06/07 05:24:01;;;;;;;16.20;8.43;;;;;;;13.44;85.06;101841.66;5124276;29;20032;-69
2023/06/07 05:26:32;;;;;;;14.17;8.50;;;;;;;13.62;84.98;101840.66;5124995;29;20397;-70
2023/06/07 05:29:04;;;;;;;13.57;8.37;;;;;;;13.73;83.17;101848.38;5124328;29;20036;-68
2023/06/07 05:31:35;;;;;;;16.03;8.17;;;;;;;13.64;83.01;101838.00;5124995;29;20092;-69
2023/06/07 05:34:07;;;;;;;13.73;7.63;;;;;;;13.59;82.45;101839.81;5123144;29;20131;-68
2023/06/07 05:36:39;;;;;;;18.13;9.57;;;;;;;13.53;82.93;101845.94;5124887;29;20039;-68
2023/06/07 05:39:10;;;;;;;12.55;8.63;;;;;;;13.44;83.20;101846.00;5124145;29;20048;-68
2023/06/07 05:41:42;;;;;;;13.23;8.50;;;;;;;13.43;83.65;101839.91;5123685;29;20368;-68
2023/06/07 05:44:13;;;;;;;19.02;9.88;;;;;;;13.43;83.67;101841.69;5124006;29;20360;-69
2023/06/07 05:46:45;;;;;;;13.57;8.17;;;;;;;13.44;83.18;101846.91;5124313;29;20324;-69
2023/06/07 05:49:16;;;;;;;21.90;9.00;;;;;;;13.53;83.30;101840.72;5124167;29;20032;-69
2023/06/07 05:51:48;;;;;;;18.13;8.60;;;;;;;13.77;82.74;101850.09;5124026;29;20032;-69
2023/06/07 05:54:19;;;;;;;17.83;8.43;;;;;;;13.58;82.86;101849.41;5124348;29;20088;-69
2023/06/07 05:56:50;;;;;;;17.37;8.73;;;;;;;13.48;83.54;101848.59;5124258;29;20490;-70
2023/06/07 05:59:22;;;;;;;22.47;10.00;;;;;;;13.53;83.45;101851.19;5124184;29;20455;-69
2023/06/07 06:01:53;;;;;;;17.60;9.80;;;;;;;13.57;83.70;101860.78;5123837;29;20063;-69
2023/06/07 06:04:24;;;;;;;12.23;8.13;;;;;;;13.59;83.15;101852.91;5123747;29;20086;-69
2023/06/07 06:06:56;;;;;;;13.57;8.60;;;;;;;13.74;83.56;101860.63;5123697;29;20048;-69
2023/06/07 06:09:27;;;;;;;15.10;8.33;;;;;;;13.80;81.90;101859.72;5123663;29;20035;-69
2023/06/07 06:11:59;;;;;;;12.53;8.23;;;;;;;13.82;81.81;101861.41;5124114;29;20046;-69
2023/06/07 06:14:30;;;;;;;20.77;9.70;;;;;;;14.02;81.94;101868.22;5123433;29;20032;-69
2023/06/07 06:17:02;;;;;;;16.60;8.33;;;;;;;14.07;81.56;101865.56;5123820;29;20409;-69
2023/06/07 06:19:33;;;;;;;16.77;9.07;;;;;;;14.21;81.35;101859.28;5123999;29;20033;-69
2023/06/07 06:22:05;;;;;;;14.03;8.27;;;;;;;14.22;80.12;101863.66;5123483;29;20043;-69
2023/06/07 06:24:36;;;;;;;17.17;8.90;;;;;;;14.16;79.75;101861.09;5123116;29;20032;-69
2023/06/07 06:27:09;;;;;;;13.93;8.43;;;;;;;14.11;79.43;101867.28;5123097;29;20464;-69
2023/06/07 06:29:41;;;;;;;13.43;8.45;;;;;;;14.29;79.37;101860.97;5122674;29;20032;-69
2023/06/07 06:32:12;;;;;;;14.90;8.13;;;;;;;14.50;78.82;101868.56;5123066;29;20380;-69
2023/06/07 06:34:47;;;;;;;16.57;8.20;;;;;;;14.57;78.29;101870.25;5123384;29;20040;-69
2023/06/07 06:37:19;;;;;;;13.40;7.75;;;;;;;14.81;77.35;101870.88;5123389;29;20044;-69
2023/06/07 06:39:51;;;;;;;15.03;8.83;;;;;;;14.64;76.57;101873.69;5121805;29;20107;-69
2023/06/07 06:42:22;;;;;;;16.00;8.80;;;;;;;14.63;77.13;101877.19;5123132;29;20479;-69
2023/06/07 06:44:54;;;;;;;21.23;9.00;;;;;;;14.75;77.65;101876.19;5121603;29;20036;-70
2023/06/07 06:47:26;;;;;;;16.98;8.43;;;;;;;14.74;77.39;101875.31;5121735;29;20040;-70
2023/06/07 06:49:59;;;;;;;13.87;8.47;;;;;;;14.90;77.16;101875.13;5122852;29;20038;-68
2023/06/07 06:52:31;;;;;;;11.45;7.82;;;;;;;15.04;76.48;101878.44;5122941;29;20147;-69
2023/06/07 06:55:03;;;;;;;13.40;7.90;;;;;;;15.10;75.22;101886.22;5122570;29;20468;-69
2023/06/07 06:57:35;;;;;;;15.57;8.98;;;;;;;15.08;75.18;101881.88;5122775;29;20036;-69
2023/06/07 07:00:10;;;;;;;14.02;7.97;;;;;;;15.01;75.32;101883.72;5121509;29;20040;-69
2023/06/07 07:02:41;;;;;;;12.82;7.20;;;;;;;15.32;74.66;101886.75;5122602;29;20123;-70
2023/06/07 07:05:13;;;;;;;18.87;8.10;;;;;;;15.20;74.16;101881.72;5123417;29;20162;-69
2023/06/07 07:07:45;;;;;;;16.25;8.02;;;;;;;15.04;74.40;101901.22;5122470;29;20037;-70
2023/06/07 07:10:18;;;;;;;11.17;8.20;;;;;;;15.31;74.39;101903.44;5122755;29;20040;-70
2023/06/07 07:12:49;;;;;;;12.57;7.85;;;;;;;15.59;72.67;101894.25;5122570;29;20028;-70
2023/06/07 07:15:21;;;;;;;14.83;8.37;;;;;;;15.58;72.34;101905.66;5121298;29;20096;-70
2023/06/07 07:17:52;;;;;;;15.23;8.37;;;;;;;15.62;72.64;101902.09;5122941;29;20036;-70
2023/06/07 07:20:24;;;;;;;16.83;7.97;;;;;;;15.49;71.70;101899.66;5122388;29;20044;-70
2023/06/07 07:22:55;;;;;;;12.53;9.03;;;;;;;15.70;72.17;101900.22;5121877;29;20476;-70
2023/06/07 07:25:27;;;;;;;13.93;8.00;;;;;;;16.08;71.47;101903.09;5122204;29;20426;-70
2023/06/07 07:27:59;;;;;;;15.75;8.82;;;;;;;16.01;70.83;101902.34;5122256;29;20115;-70
2023/06/07 07:30:30;;;;;;;12.33;8.43;;;;;;;15.94;69.44;101898.06;5122066;29;20047;-70
2023/06/07 07:33:02;;;;;;;14.63;8.10;;;;;;;16.15;69.04;101907.38;5122293;29;20095;-69
2023/06/07 07:35:33;;;;;;;12.77;7.63;;;;;;;16.24;69.64;101899.28;5120485;29;20036;-70
2023/06/07 07:38:06;;;;;;;14.30;7.57;;;;;;;16.19;67.83;101907.25;5122093;29;20032;-70
2023/06/07 07:40:37;;;;;;;21.40;8.38;;;;;;;16.49;68.34;101901.47;5121913;29;20531;-69
2023/06/07 07:43:10;;;;;;;18.77;7.50;;;;;;;16.47;69.03;101895.34;5121504;29;20028;-69
2023/06/07 07:45:42;;;;;;;14.75;8.63;;;;;;;16.63;67.31;101894.16;5121682;29;20139;-70
2023/06/07 07:48:13;;;;;;;18.83;8.63;;;;;;;16.48;66.88;101899.72;5121038;29;20115;-69
2023/06/07 07:50:44;;;;;;;14.53;7.90;;;;;;;16.84;67.53;101913.91;5121506;29;20036;-69
2023/06/07 07:53:16;;;;;;;12.73;7.47;;;;;;;16.77;66.35;101914.94;5121891;29;20040;-70
2023/06/07 07:55:47;;;;;;;18.10;7.97;;;;;;;16.89;66.53;101916.50;5121724;29;20037;-70
2023/06/07 07:58:18;;;;;;;14.30;7.77;;;;;;;16.96;66.05;101918.09;5121746;29;20112;-69
2023/06/07 08:00:50;;;;;;;12.87;8.23;;;;;;;16.94;67.29;101914.63;5122070;29;20468;-70
2023/06/07 08:03:21;;;;;;;14.20;7.83;;;;;;;17.23;66.16;101911.34;5104135;29;20053;-70
2023/06/07 08:05:53;;;;;;;15.27;7.90;;;;;;;17.46;64.27;101913.44;5121602;29;20036;-69
2023/06/07 08:08:25;;;;;;;18.27;7.73;;;;;;;17.82;64.10;101908.19;5121498;29;20475;-69
2023/06/07 08:10:57;;;;;;;15.25;7.97;;;;;;;18.04;61.79;101910.28;5122107;29;20103;-69
2023/06/07 08:13:28;;;;;;;16.35;8.05;;;;;;;18.44;62.20;101906.59;5121696;29;20039;-69
2023/06/07 08:16:00;;;;;;;12.90;7.23;;;;;;;18.58;60.13;101907.06;5121312;29;20036;-69
2023/06/07 08:18:31;;;;;;;17.77;7.70;;;;;;;18.75;59.84;101913.63;5121826;29;20032;-69
2023/06/07 08:21:03;;;;;;;15.47;7.73;;;;;;;18.81;58.12;101904.69;5121269;29;20039;-69
2023/06/07 08:23:35;;;;;;;12.30;7.72;;;;;;;18.62;57.96;101899.91;5121475;29;20056;-69
2023/06/07 08:26:06;;;;;;;19.70;7.73;;;;;;;18.91;57.76;101911.44;5121665;29;20440;-70
2023/06/07 08:28:38;;;;;;;15.93;7.70;;;;;;;19.09;59.16;101907.38;5120836;29;20264;-70
2023/06/07 08:31:10;;;;;;;;;;;;;;;19.38;57.64;101910.88;5121054;29;20048;-69
2023/06/07 08:33:42;;;;;;;18.35;6.90;;;;;;;18.67;58.21;101903.28;5121155;29;20390;-69
2023/06/07 08:36:14;;;;;;;14.57;7.90;;;;;;;18.66;60.00;101896.28;5119418;29;20036;-70
2023/06/07 08:38:46;;;;;;;16.58;7.55;;;;;;;19.12;59.74;101902.00;5120052;29;20071;-69
2023/06/07 08:41:17;;;;;;;20.67;7.80;;;;;;;19.37;57.18;101893.28;5120913;29;20035;-69
2023/06/07 08:43:49;;;;;;;15.87;7.07;;;;;;;19.45;57.96;101891.28;5120818;29;20127;-70
2023/06/07 08:46:23;;;;;;;15.88;7.32;;;;;;;19.68;58.20;101904.59;5121059;29;20379;-69
2023/06/07 08:48:55;;;;;;;12.93;7.18;;;;;;;19.65;56.66;101899.41;5119435;29;20108;-69
2023/06/07 08:51:27;;;;;;;;;;;;;;;19.75;56.86;101907.91;5120763;29;20028;-70
2023/06/07 08:54:03;;;;;;;12.73;6.83;;;;;;;19.50;57.08;101895.50;5120891;29;19970;-70
2023/06/07 08:56:35;;;;;;;15.80;8.05;;;;;;;19.72;58.94;101900.06;5120918;29;20032;-69
2023/06/07 08:59:08;;;;;;;14.68;7.15;;;;;;;19.74;56.67;101906.19;5120629;29;20036;-71
2023/06/07 09:01:39;;;;;;;;;;;;;;;20.36;56.43;101896.13;5120964;29;20086;-69
2023/06/07 09:04:11;;;;;;;14.90;7.97;;;;;;;20.39;54.02;101901.31;5120281;29;20014;-69
2023/06/07 09:06:43;;;;;;;17.83;7.85;;;;;;;20.14;53.21;101903.97;5120576;29;20051;-69
2023/06/07 09:09:14;;;;;;;17.53;7.47;;;;;;;20.13;55.85;101899.63;5120811;29;20028;-69
2023/06/07 09:11:51;;;;;;;12.93;7.03;;;;;;;19.86;56.11;101900.50;5120272;29;20039;-69
2023/06/07 09:14:23;;;;;;;18.98;7.82;;;;;;;19.77;54.38;101908.75;5120951;29;20051;-70
2023/06/07 09:16:56;;;;;;;19.50;7.30;;;;;;;20.06;54.80;101908.66;5120558;29;20037;-70
2023/06/07 09:19:40;;;;;;;18.23;9.05;;;;;;;19.57;54.91;101908.53;5120238;29;20500;-69
2023/06/07 09:22:17;;;;;;;11.75;7.38;;;;;;;20.09;56.10;101906.78;5120770;29;20468;-70
2023/06/07 09:24:49;;;;;;;16.98;7.35;;;;;;;20.53;54.27;101893.75;5120055;29;20036;-70
2023/06/07 09:27:31;;;;;;;15.60;7.35;;;;;;;20.33;53.51;101893.59;5087984;29;20040;-70
2023/06/07 09:30:04;;;;;;;18.02;7.65;;;;;;;20.35;54.75;101900.56;5119036;29;20069;-70
2023/06/07 09:32:37;;;;;;;11.38;7.28;;;;;;;20.35;54.72;101894.41;5119956;29;20040;-70
2023/06/07 09:35:16;;;;;;;17.33;7.60;;;;;;;20.28;54.24;101904.34;5120372;29;20115;-70
2023/06/07 09:37:54;;;;;;;14.38;7.88;;;;;;;20.18;53.40;101887.06;5120918;29;20476;-69
2023/06/07 09:40:26;;;;;;;16.25;7.90;;;;;;;20.55;54.38;101891.03;5120324;29;20095;-70
2023/06/07 09:42:59;;;;;;;17.43;8.63;;;;;;;21.21;53.09;101899.13;5119484;29;20361;-70
2023/06/07 09:45:31;;;;;;;18.15;8.90;;;;;;;21.72;51.09;101905.06;5119915;29;20056;-69
2023/06/07 09:48:05;;;;;;;17.02;8.40;;;;;;;21.37;49.87;101902.03;5120925;29;20095;-70
2023/06/07 09:50:36;;;;;;;23.55;8.90;;;;;;;21.26;50.27;101898.94;5120128;29;20064;-69
2023/06/07 09:53:09;;;;;;;13.47;7.77;;;;;;;21.84;49.04;101901.00;5118904;29;20070;-69
2023/06/07 09:55:40;;;;;;;14.68;7.70;;;;;;;22.39;48.72;101898.66;5120632;29;20036;-70
2023/06/07 09:58:19;;;;;;;14.33;7.23;;;;;;;23.29;48.02;101899.81;5120051;29;20034;-69
2023/06/07 10:00:52;;;;;;;12.55;7.80;;;;;;;23.21;46.39;101896.69;5118851;29;20063;-70
2023/06/07 10:03:25;;;;;;;11.10;7.15;;;;;;;23.53;45.58;101908.41;5119716;29;20135;-70
2023/06/07 10:05:57;;;;;;;14.63;7.78;;;;;;;24.11;42.25;101903.75;5120077;29;20036;-70
2023/06/07 10:08:28;;;;;;;14.57;8.00;;;;;;;23.90;43.56;101908.38;5123791;29;20043;-70
2023/06/07 10:11:00;;;;;;;11.30;7.75;;;;;;;24.15;42.23;101891.97;5122137;29;20032;-70
2023/06/07 10:13:33;;;;;;;14.63;8.80;;;;;;;23.65;42.65;101897.16;5123688;29;20040;-70
2023/06/07 10:16:10;;;;;;;18.33;8.57;;;;;;;22.49;45.00;101890.25;5123912;29;20115;-70
2023/06/07 10:18:42;;;;;;;20.40;8.00;;;;;;;22.62;45.81;101888.78;5123430;29;20091;-70
2023/06/07 10:21:19;;;;;;;13.70;7.47;;;;;;;22.24;46.76;101893.97;5123375;29;20071;-70
2023/06/07 10:23:55;;;;;;;14.68;7.35;;;;;;;22.40;45.95;101894.19;5123455;29;20147;-70
2023/06/07 10:26:52;;;;;;;15.32;8.15;;;;;;;22.48;47.17;101894.72;5122417;29;20028;-70
2023/06/07 10:29:41;;;;;;;13.25;7.25;;;;;;;22.50;47.39;101889.31;5123391;29;20437;-70
2023/06/07 10:32:16;;;;;;;12.05;8.20;;;;;;;21.94;47.74;101901.47;5122331;29;20474;-70
2023/06/07 10:34:49;;;;;;;10.15;7.53;;;;;;;21.58;48.97;101894.16;5123555;29;20040;-70
2023/06/07 10:37:21;;;;;;;18.13;10.00;;;;;;;21.93;48.99;101889.13;5123223;29;20063;-70
2023/06/07 10:39:52;;;;;;;13.25;8.38;;;;;;;22.24;48.64;101893.13;5123163;29;20123;-70
2023/06/07 10:42:25;;;;;;;13.23;7.90;;;;;;;22.40;48.68;101892.38;5121814;29;20032;-70
2023/06/07 10:44:56;;;;;;;12.10;7.85;;;;;;;22.57;48.70;101890.75;5123476;29;20272;-70
2023/06/07 10:47:29;;;;;;;12.93;7.73;;;;;;;22.14;47.94;101895.31;5121756;29;20044;-70
2023/06/07 10:50:01;;;;;;;11.35;7.35;;;;;;;21.78;49.14;101891.53;5122847;29;20135;-70
2023/06/07 10:52:32;;;;;;;12.70;7.67;;;;;;;22.09;49.68;101887.56;5122010;29;20471;-70
2023/06/07 10:55:23;;;;;;;18.23;8.47;;;;;;;22.43;49.81;101891.41;5123005;29;20051;-70
2023/06/07 10:57:55;;;;;;;14.75;8.23;;;;;;;22.34;48.83;101894.47;5122982;29;20271;-70
2023/06/07 11:00:31;;;;;;;13.50;7.35;;;;;;;22.34;48.46;101889.16;5122873;29;20448;-70
2023/06/07 11:03:06;;;;;;;15.25;7.88;;;;;;;22.30;49.41;101884.91;5121136;29;20032;-70
2023/06/07 11:05:53;;;;;;;15.93;7.85;;;;;;;22.48;48.71;101881.41;5123363;29;20103;-70
2023/06/07 11:08:30;;;;;;;16.00;8.15;;;;;;;21.82;48.77;101894.91;5122559;29;20028;-70
2023/06/07 11:11:02;;;;;;;15.77;8.75;;;;;;;22.14;48.82;101885.56;5123035;29;20360;-70
2023/06/07 11:13:43;;;;;;;11.85;7.72;;;;;;;21.95;51.16;101889.94;5121545;29;20028;-70
2023/06/07 11:16:23;;;;;;;13.45;8.25;;;;;;;21.61;50.58;101886.94;5122561;29;20028;-70
2023/06/07 11:18:55;;;;;;;12.95;7.40;;;;;;;21.54;51.26;101881.94;5121293;29;20039;-70
2023/06/07 11:21:27;;;;;;;16.40;8.00;;;;;;;21.32;50.98;101882.78;5122743;29;20051;-70
2023/06/07 11:24:11;;;;;;;13.57;6.70;;;;;;;21.78;51.60;101872.97;5122018;29;20028;-69
2023/06/07 11:26:43;;;;;;;18.45;9.18;;;;;;;21.36;49.92;101873.78;5122387;29;20028;-70
2023/06/07 11:29:15;;;;;;;13.03;8.30;;;;;;;21.26;50.54;101872.44;5122538;29;20055;-70
2023/06/07 11:31:47;;;;;;;12.80;8.00;;;;;;;21.40;51.71;101872.72;5122221;29;20036;-70
2023/06/07 11:34:19;;;;;;;12.18;8.00;;;;;;;21.09;51.97;101875.75;5122068;29;20119;-70
2023/06/07 11:36:52;;;;;;;15.00;8.13;;;;;;;21.09;52.48;101867.78;5122241;29;20119;-71
2023/06/07 11:39:32;;;;;;;12.02;7.25;;;;;;;21.34;54.70;101865.03;5121889;29;20032;-70
2023/06/07 11:42:05;;;;;;;14.32;8.07;;;;;;;21.40;51.60;101855.97;5122283;29;20024;-70